Please be sure to check the latest weather conditions by clicking the link and viewing our local weather information!

Check Weather

Welcome to Lakeway Airpark (3R9)

FromTheAir

We’re a community airpark nestled within the town of Lakeway, Texas (17 miles northwest of downtown Austin).

Lakeway Airpark, Inc. was formed by Lakeway residents and interested parties to own and manage Lakeway Airpark (3R9).

The Airpark is a privately owned not for profit public use airport for residents and guests of Lakeway. No public funds are used and the airport is supported by fees and fuel sales at the airport.

Lakeway Airpark is an unmanned facility open for use from Sunrise to Sunset seven days a week. Takeoffs and landings are not permitted at night, between Sunset and Sunrise, by City Ordinance.

Quick Weather Info

Available data for KAUS from the past 2 hours

METAR
KAUS 310753Z 20004KT 10SM FEW020 FEW150 24/22 A2996 RMK AO2 SLP134 T02390222
KAUS 310653Z 17009KT 10SM FEW150 25/22 A2996 RMK AO2 SLP134 T02500222
TAF
KAUS 310635Z 3107/0112 15010G15KT P6SM FEW070 BKN150 FM310800 18003KT P6SM BKN010 FM311600 17010KT P6SM SCT035 FM312000 17013G18KT P6SM SCT060 FM010200 16008KT P6SM FEW030 FM010600 17003KT P6SM BKN015